Time;durP1;ratioP1;P1;durP2;ratioP2;P2;SDS_P1;SDS_P2;PMS_P1;PMS_P2;Temp;Humidity;BMP_temperature;BMP_pressure;BME280_temperature;BME280_humidity;BME280_pressure;Samples;Min_cycle;Max_cycle;Signal;HPM_P1;HPM_P2
2023/01/05 00:01:13;;;;;;;34.03;8.20;;;13.10;75.60;;;;;;5019535;28;20040;-90
2023/01/05 00:03:57;;;;;;;27.83;8.23;;;13.10;75.60;;;;;;5023464;28;20040;-85
2023/01/05 00:06:42;;;;;;;33.72;6.65;;;13.10;75.60;;;;;;5003782;28;20053;-85
2023/01/05 00:09:28;;;;;;;30.85;7.28;;;13.10;75.60;;;;;;5008622;28;20064;-85
2023/01/05 00:24:25;;;;;;;30.92;6.32;;;13.10;75.60;;;;;;5004767;28;20500;-85
2023/01/05 00:27:10;;;;;;;33.67;8.90;;;13.00;75.50;;;;;;5014186;28;20104;-85
2023/01/05 00:29:55;;;;;;;31.40;6.88;;;13.00;75.50;;;;;;4991738;28;20069;-86
2023/01/05 00:32:40;;;;;;;36.60;10.32;;;13.00;75.50;;;;;;5019399;28;20704;-84
2023/01/05 00:35:25;;;;;;;31.80;7.82;;;13.00;75.50;;;;;;5001385;28;20080;-85
2023/01/05 00:38:10;;;;;;;35.28;8.07;;;13.00;75.50;;;;;;5006001;28;20048;-84
2023/01/05 00:40:56;;;;;;;38.40;9.88;;;13.00;75.50;;;;;;5005631;28;20068;-86
2023/01/05 00:43:41;;;;;;;31.08;6.65;;;13.00;75.50;;;;;;5009573;28;20041;-86
2023/01/05 00:46:25;;;;;;;37.30;7.22;;;13.10;75.70;;;;;;5009461;28;20786;-87
2023/01/05 00:49:10;;;;;;;27.55;8.23;;;13.00;75.60;;;;;;5012624;28;20057;-86
2023/01/05 00:51:54;;;;;;;30.00;7.97;;;13.00;75.60;;;;;;5013101;28;20093;-88
2023/01/05 00:54:39;;;;;;;35.60;6.97;;;13.00;75.60;;;;;;5012334;28;20050;-83
2023/01/05 00:57:24;;;;;;;38.17;8.73;;;13.00;75.60;;;;;;5016790;28;20200;-86
2023/01/05 01:00:14;;;;;;;32.80;7.75;;;13.00;75.60;;;;;;5011076;28;20537;-85
2023/01/05 01:02:59;;;;;;;27.10;7.97;;;13.00;75.50;;;;;;5016051;28;20670;-84
2023/01/05 01:05:44;;;;;;;31.05;8.80;;;13.10;75.70;;;;;;5005443;28;20544;-85
2023/01/05 01:08:28;;;;;;;30.02;7.05;;;13.00;75.50;;;;;;5015942;28;20211;-85
2023/01/05 01:11:15;;;;;;;37.58;8.10;;;13.00;75.50;;;;;;5022458;28;20076;-87
2023/01/05 01:13:59;;;;;;;24.05;6.75;;;13.10;75.70;;;;;;5021012;28;20052;-87
2023/01/05 01:16:44;;;;;;;29.70;9.05;;;13.10;75.70;;;;;;5014419;28;20406;-87
2023/01/05 01:19:29;;;;;;;32.53;7.97;;;13.00;75.50;;;;;;5006487;28;20125;-87
2023/01/05 01:22:13;;;;;;;30.52;7.78;;;13.00;75.50;;;;;;5015217;28;20096;-87
2023/01/05 01:24:58;;;;;;;32.42;7.85;;;13.00;75.60;;;;;;5021442;28;20048;-87
2023/01/05 01:27:43;;;;;;;31.98;8.63;;;13.00;75.60;;;;;;5008323;28;20149;-88
2023/01/05 01:30:28;;;;;;;31.83;6.95;;;13.00;75.60;;;;;;5001054;28;20090;-86
2023/01/05 01:33:12;;;;;;;29.42;8.13;;;13.00;75.60;;;;;;5005280;28;20405;-86
2023/01/05 01:35:58;;;;;;;33.50;7.78;;;13.00;75.60;;;;;;5006738;28;20422;-85
2023/01/05 01:38:42;;;;;;;33.53;8.30;;;13.00;75.60;;;;;;5007004;28;20108;-86
2023/01/05 01:41:27;;;;;;;31.40;7.40;;;13.00;75.60;;;;;;5006752;28;20053;-87
2023/01/05 01:44:46;;;;;;;29.27;8.55;;;12.90;75.50;;;;;;5007352;28;20402;-86
2023/01/05 01:47:46;;;;;;;34.25;7.05;;;12.90;75.50;;;;;;5005467;28;20056;-86
2023/01/05 01:50:35;;;;;;;31.42;7.93;;;12.90;75.50;;;;;;5010963;28;20213;-86
2023/01/05 01:53:26;;;;;;;34.30;7.82;;;12.90;75.50;;;;;;5017954;28;20049;-85
2023/01/05 01:56:16;;;;;;;34.28;8.73;;;12.90;75.50;;;;;;5017252;28;20057;-87
2023/01/05 01:59:01;;;;;;;33.10;7.35;;;12.90;75.60;;;;;;5032080;28;20076;-87
2023/01/05 02:01:50;;;;;;;31.75;7.57;;;12.90;75.60;;;;;;5014481;28;20068;-89
2023/01/05 02:04:37;;;;;;;31.05;6.28;;;12.90;75.60;;;;;;5013449;28;20107;-85
2023/01/05 02:07:24;;;;;;;38.47;9.23;;;12.90;75.60;;;;;;5004957;28;20077;-87
2023/01/05 02:10:08;;;;;;;24.55;6.45;;;12.90;75.60;;;;;;5015350;28;20092;-86
2023/01/05 02:12:59;;;;;;;30.45;8.40;;;12.90;75.60;;;;;;5023707;28;20045;-86
2023/01/05 02:15:55;;;;;;;35.65;8.05;;;12.80;75.40;;;;;;5016777;28;20111;-86
2023/01/05 02:19:18;;;;;;;32.08;7.25;;;12.80;75.40;;;;;;5021163;28;20064;-87
2023/01/05 02:22:41;;;;;;;39.43;7.87;;;12.80;75.50;;;;;;5012842;28;20052;-90
2023/01/05 02:25:35;;;;;;;27.70;6.22;;;12.70;75.30;;;;;;5020650;28;20243;-89
2023/01/05 02:28:35;;;;;;;35.72;9.90;;;12.80;75.60;;;;;;5016624;28;20040;-88
2023/01/05 02:31:31;;;;;;;29.85;8.25;;;12.70;75.50;;;;;;5020367;28;20334;-87
2023/01/05 02:34:59;;;;;;;37.17;7.15;;;12.70;75.50;;;;;;5025858;28;20102;-90
2023/01/05 02:37:58;;;;;;;33.58;7.28;;;12.70;75.60;;;;;;5007987;28;20037;-88
2023/01/05 02:40:54;;;;;;;31.17;5.30;;;12.70;75.60;;;;;;5018398;28;20044;-88
2023/01/05 02:43:38;;;;;;;26.42;7.25;;;12.70;75.60;;;;;;5019723;28;20079;-90
2023/01/05 02:46:23;;;;;;;31.42;7.00;;;12.70;75.60;;;;;;5017611;28;20057;-91
2023/01/05 02:49:08;;;;;;;32.00;7.32;;;12.60;75.50;;;;;;5015918;28;20103;-88
2023/01/05 02:51:56;;;;;;;38.05;9.10;;;12.70;75.70;;;;;;5025962;28;20072;-91
2023/01/05 02:54:51;;;;;;;31.95;7.68;;;12.70;75.70;;;;;;5007954;28;20049;-88
2023/01/05 02:58:05;;;;;;;34.35;7.40;;;12.70;75.80;;;;;;5009345;28;20084;-92
2023/01/05 03:00:56;;;;;;;29.35;7.07;;;12.60;75.60;;;;;;5012618;28;20037;-81
2023/01/05 03:04:00;;;;;;;31.15;7.70;;;12.60;75.60;;;;;;5014846;28;20098;-87
2023/01/05 03:06:48;;;;;;;;;;;12.70;75.80;;;;;;5018549;28;20116;-87
2023/01/05 03:09:38;;;;;;;33.38;6.30;;;12.60;75.60;;;;;;5021537;28;19920;-87
2023/01/05 03:15:38;;;;;;;26.75;6.32;;;12.60;75.60;;;;;;5043498;28;20094;-81
2023/01/05 03:18:25;;;;;;;30.17;6.70;;;12.60;75.70;;;;;;5024397;28;20063;-88
2023/01/05 03:21:11;;;;;;;27.27;6.78;;;12.60;75.70;;;;;;5018888;28;20559;-87
2023/01/05 03:36:28;;;;;;;29.13;6.88;;;12.60;76.40;;;;;;5002857;28;20638;-82
2023/01/05 03:39:16;;;;;;;30.67;6.78;;;12.60;75.90;;;;;;5012934;28;20041;-81
2023/01/05 03:42:05;;;;;;;27.58;6.25;;;12.60;75.90;;;;;;5021690;28;20111;-82
2023/01/05 03:44:49;;;;;;;30.48;7.70;;;12.60;76.00;;;;;;5009598;28;20057;-81
2023/01/05 03:47:35;;;;;;;28.85;7.10;;;12.60;76.00;;;;;;5005548;28;20045;-81
2023/01/05 03:50:19;;;;;;;35.13;6.55;;;12.60;76.10;;;;;;5004428;28;20064;-81
2023/01/05 03:53:06;;;;;;;30.50;5.95;;;12.60;76.10;;;;;;5013109;28;20211;-82
2023/01/05 03:55:51;;;;;;;25.00;4.97;;;12.60;76.10;;;;;;5013786;28;20159;-83
2023/01/05 03:58:36;;;;;;;31.15;7.10;;;12.60;76.10;;;;;;5015378;28;20053;-82
2023/01/05 04:01:21;;;;;;;27.83;6.07;;;12.70;76.30;;;;;;5010117;28;20089;-83
2023/01/05 04:04:05;;;;;;;30.27;6.97;;;12.60;76.60;;;;;;5014313;28;20563;-82
2023/01/05 04:06:50;;;;;;;25.30;5.47;;;12.60;76.10;;;;;;5009030;28;20065;-83
2023/01/05 04:09:35;;;;;;;32.88;6.97;;;12.70;76.30;;;;;;5009228;28;20045;-83
2023/01/05 04:12:20;;;;;;;26.60;6.25;;;12.60;76.20;;;;;;5013021;28;20124;-81
2023/01/05 04:15:06;;;;;;;25.17;5.78;;;12.70;76.30;;;;;;5011631;28;20048;-81
2023/01/05 04:17:51;;;;;;;26.40;7.88;;;12.70;76.40;;;;;;5013272;28;20081;-81
2023/01/05 04:20:36;;;;;;;25.48;5.97;;;12.70;76.50;;;;;;5011125;28;20041;-80
2023/01/05 04:23:20;;;;;;;24.27;5.50;;;12.70;76.40;;;;;;5009626;28;20111;-80
2023/01/05 04:26:05;;;;;;;25.27;6.25;;;12.70;76.50;;;;;;5010917;28;20060;-81
2023/01/05 04:28:51;;;;;;;27.10;6.85;;;12.70;76.50;;;;;;5013756;28;20052;-80
2023/01/05 04:31:38;;;;;;;23.17;5.53;;;12.70;76.60;;;;;;5002491;28;20048;-81
2023/01/05 04:34:24;;;;;;;22.00;5.57;;;12.70;76.60;;;;;;5005067;28;20064;-81
2023/01/05 04:37:11;;;;;;;22.85;4.68;;;12.70;76.60;;;;;;4997074;28;20418;-80
2023/01/05 04:39:57;;;;;;;21.08;5.47;;;12.70;76.60;;;;;;5015216;28;20114;-79
2023/01/05 04:42:42;;;;;;;16.35;5.53;;;12.70;76.70;;;;;;5000888;28;20125;-81
2023/01/05 04:45:27;;;;;;;18.48;4.55;;;12.70;76.70;;;;;;5005102;28;20057;-79
2023/01/05 04:48:13;;;;;;;19.23;6.00;;;12.70;76.70;;;;;;5019407;28;20935;-79
2023/01/05 04:50:58;;;;;;;21.20;4.82;;;12.70;76.70;;;;;;5011684;28;20091;-79
2023/01/05 04:53:49;;;;;;;18.98;5.35;;;12.70;76.70;;;;;;5011312;28;20100;-80
2023/01/05 04:56:37;;;;;;;16.10;5.50;;;12.70;76.70;;;;;;5008031;28;20147;-79
2023/01/05 04:59:23;;;;;;;15.63;4.55;;;12.70;76.70;;;;;;5016361;28;20095;-78
2023/01/05 05:02:13;;;;;;;21.35;4.43;;;12.70;77.20;;;;;;5018280;28;20061;-78
2023/01/05 05:05:00;;;;;;;10.48;2.67;;;12.70;76.70;;;;;;5034860;28;20033;-78
2023/01/05 05:07:46;;;;;;;10.73;3.83;;;12.70;76.70;;;;;;5028456;28;20084;-79
2023/01/05 05:10:32;;;;;;;19.30;4.45;;;12.70;76.70;;;;;;5030162;28;20059;-77
2023/01/05 05:13:17;;;;;;;16.63;4.85;;;12.70;76.80;;;;;;5037033;28;20049;-77
2023/01/05 05:16:02;;;;;;;16.42;4.03;;;12.70;76.80;;;;;;5007354;28;20515;-76
2023/01/05 05:18:48;;;;;;;13.73;3.63;;;12.70;76.80;;;;;;5006722;28;20231;-79
2023/01/05 05:21:40;;;;;;;12.10;3.58;;;12.70;76.90;;;;;;5022389;28;20032;-79
2023/01/05 05:24:24;;;;;;;11.48;3.10;;;12.70;76.90;;;;;;5006125;28;20069;-79
2023/01/05 05:27:09;;;;;;;9.85;2.95;;;12.70;76.90;;;;;;5011225;28;20081;-79
2023/01/05 05:29:54;;;;;;;12.32;3.17;;;12.70;76.90;;;;;;5014614;28;20049;-79
2023/01/05 05:32:38;;;;;;;9.85;2.78;;;12.70;76.90;;;;;;5002413;28;20342;-79
2023/01/05 05:35:23;;;;;;;9.65;2.90;;;12.70;77.00;;;;;;5006910;28;20187;-79
2023/01/05 05:38:08;;;;;;;7.35;2.22;;;12.70;77.00;;;;;;5001739;28;20048;-78
2023/01/05 05:40:53;;;;;;;8.48;2.45;;;12.70;77.00;;;;;;5001032;28;20140;-80
2023/01/05 05:43:37;;;;;;;8.27;2.17;;;12.70;77.10;;;;;;5010168;28;20060;-88
2023/01/05 05:46:22;;;;;;;8.68;2.80;;;12.70;77.10;;;;;;5023790;28;20052;-83
2023/01/05 05:49:07;;;;;;;5.75;1.70;;;12.70;77.10;;;;;;5005761;28;20048;-79
2023/01/05 05:51:52;;;;;;;5.88;2.22;;;12.70;77.20;;;;;;5006721;28;20053;-82
2023/01/05 05:54:36;;;;;;;8.15;3.15;;;12.70;77.20;;;;;;5014632;28;20108;-78
2023/01/05 05:57:21;;;;;;;6.85;2.08;;;12.70;77.20;;;;;;5019830;28;20460;-78
2023/01/05 06:00:06;;;;;;;5.93;1.40;;;12.70;77.30;;;;;;5002185;28;20045;-78
2023/01/05 06:02:57;;;;;;;4.60;1.83;;;12.70;77.30;;;;;;5001311;28;20049;-83
2023/01/05 06:05:41;;;;;;;6.45;2.35;;;12.70;77.30;;;;;;5009267;28;20107;-81
2023/01/05 06:08:28;;;;;;;5.25;1.52;;;12.70;77.30;;;;;;5011359;28;20891;-78
2023/01/05 06:11:12;;;;;;;3.90;1.17;;;12.70;77.30;;;;;;4997684;28;20126;-78
2023/01/05 06:13:57;;;;;;;6.43;2.10;;;12.70;77.30;;;;;;5006438;28;20125;-78
2023/01/05 06:16:42;;;;;;;3.88;1.00;;;12.70;77.30;;;;;;5012529;28;20052;-78
2023/01/05 06:19:26;;;;;;;6.88;1.50;;;12.80;77.50;;;;;;5007456;28;20060;-81
2023/01/05 06:22:11;;;;;;;7.22;2.28;;;12.70;77.30;;;;;;5010731;28;20053;-81
2023/01/05 06:24:56;;;;;;;4.35;1.42;;;12.70;77.30;;;;;;4999842;28;20029;-79
2023/01/05 06:27:40;;;;;;;7.10;2.65;;;12.80;77.50;;;;;;5007914;28;20100;-80
2023/01/05 06:30:26;;;;;;;4.32;1.35;;;12.80;77.60;;;;;;5016277;28;20044;-81
2023/01/05 06:33:10;;;;;;;5.47;1.70;;;12.80;77.60;;;;;;5007169;28;20165;-79
2023/01/05 06:35:57;;;;;;;6.10;1.25;;;12.80;77.60;;;;;;5002636;28;20063;-80
2023/01/05 06:38:42;;;;;;;3.90;1.30;;;12.80;77.60;;;;;;5004056;28;20294;-80
2023/01/05 06:41:26;;;;;;;6.35;2.22;;;12.80;77.60;;;;;;5005951;28;20084;-81
2023/01/05 06:44:13;;;;;;;2.70;1.00;;;12.80;77.60;;;;;;5026761;28;20081;-77
2023/01/05 06:46:58;;;;;;;5.40;1.23;;;12.80;77.70;;;;;;5008117;28;20049;-79
2023/01/05 06:49:42;;;;;;;4.00;1.20;;;12.80;77.70;;;;;;5018238;28;20661;-79
2023/01/05 06:52:27;;;;;;;5.28;1.65;;;12.80;77.70;;;;;;5005124;28;20121;-79
2023/01/05 06:55:12;;;;;;;4.00;1.10;;;12.80;77.70;;;;;;5002324;28;20044;-78
2023/01/05 06:57:56;;;;;;;3.17;1.08;;;12.80;77.80;;;;;;5006940;28;20051;-78
2023/01/05 07:00:41;;;;;;;3.58;1.02;;;12.80;77.80;;;;;;5012638;28;20045;-79
2023/01/05 07:03:25;;;;;;;4.00;1.00;;;12.90;78.00;;;;;;5015116;28;20040;-79
2023/01/05 07:06:13;;;;;;;5.47;1.40;;;12.80;77.80;;;;;;5005829;28;20429;-79
2023/01/05 07:08:58;;;;;;;4.40;1.00;;;12.90;78.00;;;;;;5014407;28;20120;-79
2023/01/05 07:11:43;;;;;;;3.17;1.10;;;12.90;78.00;;;;;;5006813;28;20460;-78
2023/01/05 07:14:27;;;;;;;2.55;1.08;;;12.90;78.00;;;;;;4999991;28;20042;-92
2023/01/05 07:17:12;;;;;;;5.35;1.23;;;12.90;78.50;;;;;;5009355;28;20045;-87
2023/01/05 07:19:56;;;;;;;4.03;1.00;;;12.90;78.00;;;;;;5020551;28;20048;-89
2023/01/05 07:22:41;;;;;;;2.72;1.48;;;12.90;78.00;;;;;;5009343;28;20041;-91
2023/01/05 07:25:30;;;;;;;2.38;0.90;;;12.90;78.00;;;;;;4994520;28;20111;-88
2023/01/05 07:28:14;;;;;;;2.63;1.10;;;12.90;78.00;;;;;;5008887;28;20524;-88
2023/01/05 07:30:59;;;;;;;2.83;1.10;;;13.00;78.20;;;;;;4994089;28;20122;-86
2023/01/05 07:33:43;;;;;;;2.42;1.05;;;12.90;78.10;;;;;;5003955;28;20045;-78
2023/01/05 07:36:28;;;;;;;3.22;1.17;;;12.90;78.10;;;;;;5003155;28;20098;-79
2023/01/05 07:39:13;;;;;;;3.60;1.00;;;12.90;78.10;;;;;;5002145;28;20037;-80
2023/01/05 07:41:57;;;;;;;3.75;2.05;;;12.90;78.20;;;;;;5005050;28;20101;-79
2023/01/05 07:44:44;;;;;;;3.15;1.15;;;12.90;78.20;;;;;;4988242;28;20044;-81
2023/01/05 07:47:28;;;;;;;1.98;1.10;;;12.90;78.20;;;;;;5002502;28;20061;-81
2023/01/05 07:50:13;;;;;;;1.73;1.35;;;12.90;78.30;;;;;;5009764;28;20052;-78
2023/01/05 07:52:58;;;;;;;3.50;1.17;;;12.90;78.30;;;;;;5010694;28;20123;-78
2023/01/05 07:55:43;;;;;;;2.35;0.82;;;12.90;78.30;;;;;;4999041;28;20044;-80
2023/01/05 07:58:28;;;;;;;3.15;1.15;;;12.90;78.40;;;;;;5008337;28;20058;-85
2023/01/05 08:01:14;;;;;;;5.10;1.77;;;13.00;78.60;;;;;;5019162;28;20188;-86
2023/01/05 08:03:59;;;;;;;5.22;1.70;;;13.00;79.20;;;;;;5016934;28;20511;-86
2023/01/05 08:06:43;;;;;;;5.50;1.50;;;13.20;80.10;;;;;;5022060;28;20056;-82
2023/01/05 08:13:58;;;;;;;6.07;2.33;;;13.80;80.80;;;;;;5014911;28;20037;-85
2023/01/05 08:15:37;;;;;;;3.38;1.65;;;14.10;80.90;;;;;;5010517;28;20044;-84
2023/01/05 08:18:22;;;;;;;4.30;1.85;;;14.40;80.90;;;;;;5015748;28;20079;-85
2023/01/05 08:21:08;;;;;;;3.92;1.48;;;14.70;81.00;;;;;;5010769;28;20068;-85
2023/01/05 08:23:53;;;;;;;3.50;1.30;;;14.90;81.00;;;;;;5010444;28;20131;-84
2023/01/05 08:26:38;;;;;;;3.60;1.05;;;15.10;81.00;;;;;;5008078;28;20050;-84
2023/01/05 08:29:22;;;;;;;3.40;1.40;;;15.30;81.00;;;;;;5005974;28;20088;-83
2023/01/05 08:32:07;;;;;;;4.68;1.60;;;15.40;80.90;;;;;;4999683;28;20528;-81
2023/01/05 08:34:51;;;;;;;3.47;1.20;;;15.60;80.90;;;;;;4996156;28;20135;-85
2023/01/05 08:37:38;;;;;;;4.60;1.30;;;15.70;80.90;;;;;;5011447;28;20057;-83
2023/01/05 08:40:25;;;;;;;2.53;1.40;;;15.80;80.80;;;;;;5016670;28;20103;-81
2023/01/05 08:43:10;;;;;;;4.53;1.45;;;15.90;80.70;;;;;;5006004;28;20048;-85
2023/01/05 08:45:55;;;;;;;2.95;1.05;;;15.90;80.60;;;;;;4998093;28;20307;-86
2023/01/05 08:48:40;;;;;;;3.65;1.85;;;16.10;80.80;;;;;;5007863;28;20037;-89
2023/01/05 08:51:25;;;;;;;3.60;1.10;;;16.10;80.50;;;;;;5011165;28;20091;-81
2023/01/05 08:54:09;;;;;;;5.43;1.42;;;16.20;80.60;;;;;;5004224;28;20048;-87
2023/01/05 08:56:54;;;;;;;5.28;2.22;;;16.30;80.60;;;;;;4999750;28;20070;-82
2023/01/05 08:59:39;;;;;;;2.85;1.10;;;16.40;80.60;;;;;;5005230;28;20048;-85
2023/01/05 09:02:24;;;;;;;4.95;1.67;;;16.50;81.10;;;;;;5008248;28;20445;-89
2023/01/05 09:05:10;;;;;;;3.80;0.98;;;16.50;80.40;;;;;;5001069;28;20501;-86
2023/01/05 09:07:55;;;;;;;3.28;1.20;;;16.60;80.30;;;;;;4998237;28;20098;-86
2023/01/05 09:10:42;;;;;;;2.88;0.93;;;16.70;80.30;;;;;;5005939;28;20137;-84
2023/01/05 09:13:27;;;;;;;2.88;1.10;;;16.80;80.20;;;;;;4998843;28;20123;-87
2023/01/05 09:16:13;;;;;;;1.42;1.00;;;16.90;80.20;;;;;;5004802;28;20453;-88
2023/01/05 09:19:01;;;;;;;3.42;1.33;;;17.00;80.00;;;;;;4996739;28;20076;-91
2023/01/05 09:21:51;;;;;;;3.58;1.38;;;17.10;79.90;;;;;;5014822;28;20647;-89
2023/01/05 09:24:35;;;;;;;4.03;1.30;;;17.20;79.90;;;;;;5011144;28;20040;-82
2023/01/05 09:27:20;;;;;;;2.47;1.17;;;17.20;79.60;;;;;;5016857;28;20073;-88
2023/01/05 09:30:05;;;;;;;6.10;1.25;;;17.30;79.50;;;;;;5002594;28;20656;-84
2023/01/05 09:32:49;;;;;;;3.17;1.55;;;17.30;79.30;;;;;;5009865;28;20040;-83
2023/01/05 09:35:34;;;;;;;2.97;0.95;;;17.30;79.70;;;;;;5014382;28;20044;-86
2023/01/05 09:38:19;;;;;;;2.92;1.10;;;17.30;79.10;;;;;;5010270;28;20052;-83
2023/01/05 09:41:22;;;;;;;3.33;1.08;;;17.30;79.10;;;;;;5004402;28;20704;-92
2023/01/05 09:44:21;;;;;;;3.63;1.40;;;17.20;78.80;;;;;;5009954;28;20883;-93
2023/01/05 09:47:25;;;;;;;4.20;1.35;;;17.20;79.00;;;;;;4992763;28;20114;-88
2023/01/05 09:50:22;;;;;;;2.70;1.10;;;17.20;79.10;;;;;;5004993;28;20461;-85
2023/01/05 09:53:07;;;;;;;2.20;0.70;;;17.20;79.00;;;;;;4997762;28;20111;-84
2023/01/05 09:55:52;;;;;;;3.38;1.05;;;17.20;78.90;;;;;;4996904;28;20567;-82
2023/01/05 09:58:40;;;;;;;4.38;1.30;;;17.20;78.80;;;;;;4995204;28;20072;-84
2023/01/05 10:01:24;;;;;;;2.55;0.90;;;17.20;78.70;;;;;;4993995;28;20125;-85
2023/01/05 10:04:21;;;;;;;4.97;1.67;;;17.20;78.70;;;;;;5002844;28;20376;-84
2023/01/05 10:07:15;;;;;;;3.65;1.00;;;17.10;79.10;;;;;;5006309;28;20415;-88
2023/01/05 10:10:05;;;;;;;6.35;1.42;;;17.10;78.70;;;;;;5009267;28;20076;-86
2023/01/05 10:13:05;;;;;;;8.07;1.73;;;17.10;78.70;;;;;;5024797;28;20037;-85
2023/01/05 10:15:54;;;;;;;4.30;1.08;;;17.10;78.70;;;;;;5023190;28;20080;-87
2023/01/05 10:18:38;;;;;;;3.50;1.05;;;17.00;78.60;;;;;;5010905;28;20029;-83
2023/01/05 10:21:38;;;;;;;5.97;1.65;;;17.00;78.60;;;;;;5013956;28;20085;-87
2023/01/05 10:24:38;;;;;;;3.55;1.10;;;17.00;78.60;;;;;;4995675;28;20155;-86
2023/01/05 10:27:35;;;;;;;5.47;1.00;;;16.90;78.50;;;;;;4999093;28;20057;-92
2023/01/05 10:30:25;;;;;;;4.28;1.10;;;16.90;78.60;;;;;;5013250;28;20032;-92
2023/01/05 10:33:22;;;;;;;7.85;1.88;;;16.80;78.50;;;;;;5000137;28;20413;-85
2023/01/05 10:36:22;;;;;;;2.13;0.80;;;16.80;78.50;;;;;;5001274;28;20054;-85
2023/01/05 10:39:41;;;;;;;2.22;1.00;;;16.80;78.50;;;;;;5009375;28;20060;-85
2023/01/05 10:42:44;;;;;;;1.67;0.55;;;16.90;78.60;;;;;;5002637;28;20033;-88
2023/01/05 10:45:30;;;;;;;2.03;0.82;;;16.90;78.60;;;;;;5008717;28;20044;-86
2023/01/05 10:48:18;;;;;;;1.95;0.80;;;16.90;78.50;;;;;;4996462;28;20107;-86
2023/01/05 10:51:04;;;;;;;2.00;0.85;;;16.80;78.30;;;;;;5003686;28;20101;-90
2023/01/05 10:53:49;;;;;;;6.13;1.60;;;16.90;78.40;;;;;;4999222;28;20510;-92
2023/01/05 10:56:34;;;;;;;1.95;0.93;;;16.90;78.50;;;;;;4998868;28;20045;-93
2023/01/05 10:59:19;;;;;;;2.08;0.70;;;16.90;78.40;;;;;;5007632;28;20099;-85
2023/01/05 11:02:11;;;;;;;1.85;0.80;;;16.90;78.30;;;;;;5010089;28;20045;-92
2023/01/05 11:05:05;;;;;;;1.50;0.70;;;16.90;78.30;;;;;;5002447;28;20119;-90
2023/01/05 11:08:02;;;;;;;2.20;0.60;;;16.90;78.30;;;;;;4990931;28;20052;-91
2023/01/05 11:11:06;;;;;;;1.35;0.60;;;16.90;78.30;;;;;;4983662;28;20104;-85
2023/01/05 11:13:55;;;;;;;2.15;1.10;;;16.90;78.30;;;;;;5013680;28;20084;-90
2023/01/05 11:16:51;;;;;;;1.17;0.45;;;16.90;78.30;;;;;;5014075;28;20640;-95
2023/01/05 11:19:42;;;;;;;2.13;0.70;;;17.00;78.30;;;;;;5010056;28;20092;-81
2023/01/05 11:22:34;;;;;;;3.00;1.05;;;17.00;78.30;;;;;;5011519;28;20125;-86
2023/01/05 11:25:30;;;;;;;1.80;0.60;;;16.90;78.00;;;;;;5012795;28;20057;-91
2023/01/05 11:28:16;;;;;;;4.22;1.20;;;17.00;78.20;;;;;;5015503;28;20157;-88
2023/01/05 11:31:04;;;;;;;2.78;0.82;;;17.10;78.20;;;;;;5004814;28;20365;-83
2023/01/05 11:33:56;;;;;;;2.10;0.80;;;17.10;78.10;;;;;;5003330;28;20057;-85
2023/01/05 11:36:41;;;;;;;4.10;0.57;;;17.20;78.10;;;;;;5014922;28;20170;-87
2023/01/05 11:39:49;;;;;;;2.13;1.05;;;17.40;78.20;;;;;;4998933;28;20603;-84
2023/01/05 11:42:41;;;;;;;2.58;0.90;;;17.40;77.80;;;;;;5000419;28;20456;-90
2023/01/05 11:45:38;;;;;;;2.25;0.70;;;17.60;77.80;;;;;;5012528;28;20048;-88
2023/01/05 11:48:28;;;;;;;3.70;1.20;;;17.70;77.80;;;;;;5011066;28;20108;-87
2023/01/05 11:51:33;;;;;;;2.05;1.00;;;17.80;77.70;;;;;;5010695;28;20045;-84
2023/01/05 11:54:38;;;;;;;1.30;0.70;;;17.90;77.60;;;;;;5002870;28;20147;-86
2023/01/05 11:57:22;;;;;;;3.42;1.02;;;18.00;77.60;;;;;;4996000;28;20033;-88
2023/01/05 12:00:25;;;;;;;3.85;1.27;;;18.10;77.60;;;;;;5000959;28;20574;-86
2023/01/05 12:03:37;;;;;;;2.08;0.75;;;18.10;77.20;;;;;;5015646;28;20043;-87
2023/01/05 12:07:00;;;;;;;2.40;0.73;;;18.10;77.00;;;;;;5007106;28;20076;-86
2023/01/05 12:10:12;;;;;;;2.40;0.80;;;18.10;76.90;;;;;;5010976;28;20112;-87
2023/01/05 12:13:21;;;;;;;1.48;0.60;;;18.20;77.10;;;;;;5005479;28;20068;-84
2023/01/05 12:16:22;;;;;;;2.78;1.10;;;18.20;76.80;;;;;;5006796;28;20061;-83
2023/01/05 12:19:40;;;;;;;5.15;1.58;;;18.30;76.90;;;;;;5000010;28;20053;-86
2023/01/05 12:22:37;;;;;;;2.72;1.20;;;18.40;76.80;;;;;;5007790;28;20045;-80
2023/01/05 12:25:36;;;;;;;2.22;0.73;;;18.40;76.70;;;;;;5008649;28;20099;-86
2023/01/05 12:28:35;;;;;;;3.95;1.55;;;18.50;76.50;;;;;;5004382;28;20128;-87
2023/01/05 12:32:01;;;;;;;4.90;1.67;;;18.50;76.30;;;;;;4994831;28;20072;-91
2023/01/05 12:35:43;;;;;;;3.60;1.38;;;18.60;76.40;;;;;;5010480;28;20045;-88
2023/01/05 12:38:52;;;;;;;2.25;0.98;;;18.70;76.50;;;;;;4986987;28;20285;-86
2023/01/05 12:41:47;;;;;;;3.28;1.10;;;18.70;76.40;;;;;;5001679;28;20085;-89
2023/01/05 12:45:07;;;;;;;4.20;1.00;;;18.70;76.40;;;;;;5007078;28;20041;-90
2023/01/05 12:48:02;;;;;;;5.10;1.02;;;18.80;76.50;;;;;;5000589;28;20064;-84
2023/01/05 12:51:09;;;;;;;6.80;1.55;;;18.80;76.50;;;;;;5010091;28;20053;-83
2023/01/05 12:54:05;;;;;;;3.45;1.02;;;18.80;76.30;;;;;;5005940;28;20088;-82
2023/01/05 12:56:55;;;;;;;5.03;1.77;;;18.80;76.40;;;;;;5012315;28;20048;-84
2023/01/05 13:00:17;;;;;;;4.32;1.38;;;18.70;76.30;;;;;;5009811;28;20072;-85
2023/01/05 13:03:05;;;;;;;2.08;0.95;;;18.60;76.10;;;;;;5015882;28;20073;-89
2023/01/05 13:06:06;;;;;;;4.53;1.40;;;18.50;76.20;;;;;;5011618;28;20631;-82
2023/01/05 13:09:21;;;;;;;2.40;0.80;;;18.50;76.20;;;;;;5008911;28;20056;-78
2023/01/05 13:12:09;;;;;;;3.70;1.23;;;18.40;76.20;;;;;;5015919;28;20065;-77
2023/01/05 13:15:13;;;;;;;8.73;1.38;;;18.40;76.30;;;;;;4998039;28;20414;-78
2023/01/05 13:18:00;;;;;;;3.20;1.00;;;18.50;76.20;;;;;;5012739;28;20044;-77
2023/01/05 13:21:00;;;;;;;4.05;1.38;;;18.50;76.10;;;;;;5015933;28;20597;-79
2023/01/05 13:24:00;;;;;;;3.53;1.38;;;18.50;76.10;;;;;;5009887;28;20132;-80
2023/01/05 13:26:45;;;;;;;7.38;1.67;;;18.50;76.10;;;;;;5014111;28;20053;-81
2023/01/05 13:29:37;;;;;;;4.07;1.30;;;18.60;76.30;;;;;;5012853;28;20037;-81
2023/01/05 13:32:28;;;;;;;9.75;1.58;;;18.60;76.20;;;;;;5006937;28;20037;-85
2023/01/05 13:35:31;;;;;;;2.78;1.48;;;18.70;76.20;;;;;;5006970;28;20045;-85
2023/01/05 13:38:34;;;;;;;2.70;0.98;;;18.70;76.10;;;;;;5003204;28;20053;-84
2023/01/05 13:41:48;;;;;;;4.32;1.15;;;18.70;76.00;;;;;;5009454;28;20117;-92
2023/01/05 13:45:01;;;;;;;4.85;1.05;;;18.70;75.70;;;;;;5015575;28;20060;-95
2023/01/05 13:47:51;;;;;;;3.27;1.20;;;18.70;75.60;;;;;;5010046;28;20044;-88
2023/01/05 13:51:03;;;;;;;3.72;1.25;;;18.70;75.70;;;;;;5005429;28;20044;-89
2023/01/05 13:53:50;;;;;;;3.03;0.90;;;18.60;75.30;;;;;;5008739;28;20112;-90
2023/01/05 13:56:38;;;;;;;7.78;2.15;;;18.60;75.50;;;;;;4997972;28;20192;-87
2023/01/05 13:59:32;;;;;;;7.95;2.22;;;18.50;75.30;;;;;;5020573;28;20045;-92
2023/01/05 14:02:28;;;;;;;2.50;1.08;;;18.50;75.20;;;;;;5007722;28;20247;-88
2023/01/05 14:05:26;;;;;;;5.05;0.85;;;18.40;75.00;;;;;;5007850;28;20056;-84
2023/01/05 14:08:20;;;;;;;4.75;1.75;;;18.40;75.00;;;;;;5012645;28;20326;-79
2023/01/05 14:11:13;;;;;;;5.68;1.33;;;18.40;75.10;;;;;;5008760;28;20052;-81
2023/01/05 14:14:07;;;;;;;5.13;1.00;;;18.30;74.90;;;;;;5011876;28;20037;-81
2023/01/05 14:16:53;;;;;;;3.97;1.42;;;18.20;74.90;;;;;;5011832;28;20904;-89
2023/01/05 14:19:38;;;;;;;4.10;1.33;;;18.20;74.90;;;;;;5005611;28;20491;-80
2023/01/05 14:22:32;;;;;;;4.05;1.30;;;18.10;74.90;;;;;;5010244;28;20045;-79
2023/01/05 14:25:45;;;;;;;4.65;1.20;;;18.10;74.80;;;;;;4995602;28;20504;-81
2023/01/05 14:28:37;;;;;;;3.78;0.88;;;18.00;74.60;;;;;;5006324;28;20047;-82
2023/01/05 14:31:37;;;;;;;4.05;1.48;;;18.00;74.70;;;;;;5005155;28;20367;-84
2023/01/05 14:34:24;;;;;;;4.53;1.10;;;17.90;74.60;;;;;;5009738;28;20041;-84
2023/01/05 14:37:25;;;;;;;2.80;1.45;;;17.90;74.80;;;;;;5005871;28;20044;-88
2023/01/05 14:40:31;;;;;;;4.20;1.42;;;17.90;75.20;;;;;;5008653;28;20104;-87
2023/01/05 14:43:31;;;;;;;3.22;0.95;;;17.90;75.30;;;;;;5005801;28;20040;-81
2023/01/05 14:46:15;;;;;;;3.05;1.40;;;18.00;75.40;;;;;;5010973;28;20056;-86
2023/01/05 14:49:06;;;;;;;6.18;1.38;;;18.10;75.40;;;;;;5002408;28;20493;-88
2023/01/05 14:51:54;;;;;;;3.55;1.42;;;18.10;75.40;;;;;;5003567;28;20590;-82
2023/01/05 14:55:02;;;;;;;4.93;2.13;;;18.20;75.50;;;;;;5014020;28;20045;-86
2023/01/05 14:57:57;;;;;;;6.70;1.88;;;18.20;75.40;;;;;;4999199;28;20056;-79
2023/01/05 15:00:44;;;;;;;3.47;1.50;;;18.20;75.30;;;;;;5002468;28;20104;-82
2023/01/05 15:03:42;;;;;;;6.30;2.50;;;18.20;75.30;;;;;;4990909;28;20060;-81
2023/01/05 15:07:03;;;;;;;2.25;1.30;;;18.20;75.30;;;;;;4995863;28;20061;-82
2023/01/05 15:10:17;;;;;;;4.38;1.55;;;18.20;75.50;;;;;;4990104;28;20048;-82
2023/01/05 15:13:25;;;;;;;4.78;1.70;;;18.10;75.40;;;;;;5003598;28;20181;-82
2023/01/05 15:16:26;;;;;;;3.10;1.20;;;18.10;75.50;;;;;;4994876;28;20045;-83